Time;durP1;ratioP1;P1;durP2;ratioP2;P2;SDS_P1;SDS_P2;PMS_P1;PMS_P2;Temp;Humidity;BMP_temperature;BMP_pressure;BME280_temperature;BME280_humidity;BME280_pressure;Samples;Min_cycle;Max_cycle;Signal;HPM_P1;HPM_P2
2021/03/10 00:00:17;;;;;;;265.65;87.57;;;;;;;-4.11;60.65;100969.93;1714047;83;21160;-70
2021/03/10 00:02:45;;;;;;;253.67;85.00;;;;;;;-4.14;60.72;100963.55;1714329;83;21204;-70
2021/03/10 00:05:12;;;;;;;255.92;86.67;;;;;;;-4.14;60.78;100965.70;1714309;83;21192;-70
2021/03/10 00:07:38;;;;;;;222.73;70.75;;;;;;;-4.16;60.83;100965.39;1714385;83;21176;-70
2021/03/10 00:10:07;;;;;;;155.52;51.98;;;;;;;-4.20;60.90;100969.02;1714503;83;21262;-70
2021/03/10 00:12:33;;;;;;;163.92;56.37;;;;;;;-4.26;60.96;100965.38;1725485;82;21167;-69
2021/03/10 00:14:59;;;;;;;156.63;53.78;;;;;;;-4.28;61.02;100967.17;1731855;82;21227;-70
2021/03/10 00:17:26;;;;;;;181.82;59.88;;;;;;;-4.33;61.06;100967.84;1731686;82;21148;-70
2021/03/10 00:19:52;;;;;;;234.15;76.05;;;;;;;-4.40;61.10;100966.39;1720680;82;21212;-70
2021/03/10 00:22:18;;;;;;;248.15;88.27;;;;;;;-4.44;61.18;100970.88;1709139;83;21216;-70
2021/03/10 00:24:44;;;;;;;203.88;71.28;;;;;;;-4.46;61.26;100974.42;1712908;83;21189;-69
2021/03/10 00:27:23;;;;;;;174.53;59.53;;;;;;;-4.50;61.34;100972.87;1708877;83;21144;-70
2021/03/10 00:29:39;;;;;;;164.75;55.90;;;;;;;-4.48;61.38;100971.05;1708224;83;21187;-70
2021/03/10 00:32:05;;;;;;;130.27;52.03;;;;;;;-4.42;61.40;100970.79;1703918;82;21160;-70
2021/03/10 00:34:32;;;;;;;116.60;41.85;;;;;;;-4.40;61.43;100968.99;1705012;83;21529;-69
2021/03/10 00:36:58;;;;;;;135.88;41.15;;;;;;;-4.45;61.48;100965.27;1703248;82;21207;-70
2021/03/10 00:39:24;;;;;;;95.47;37.83;;;;;;;-4.51;61.54;100968.56;1702084;84;21150;-69
2021/03/10 00:41:50;;;;;;;100.95;36.70;;;;;;;-4.57;61.59;100965.28;1702095;84;21598;-71
2021/03/10 00:44:16;;;;;;;126.60;43.60;;;;;;;-4.61;61.66;100958.50;1704068;82;21752;-70
2021/03/10 00:46:43;;;;;;;129.00;46.53;;;;;;;-4.65;61.71;100963.47;1701778;84;22607;-70
2021/03/10 00:49:09;;;;;;;149.65;55.00;;;;;;;-4.66;61.77;100960.46;1716122;82;21200;-69
2021/03/10 00:51:35;;;;;;;157.20;55.35;;;;;;;-4.61;61.85;100961.11;1704754;83;21172;-70
2021/03/10 00:54:01;;;;;;;158.40;56.05;;;;;;;-4.54;61.90;100961.73;1703799;82;21204;-70
2021/03/10 00:56:28;;;;;;;137.60;49.98;;;;;;;-4.48;61.93;100955.43;1715866;82;21212;-69
2021/03/10 00:58:54;;;;;;;140.28;46.37;;;;;;;-4.48;61.96;100950.22;1715159;83;21261;-70
2021/03/10 01:01:20;;;;;;;112.28;37.83;;;;;;;-4.50;61.99;100950.27;1721281;83;21171;-70
2021/03/10 01:03:46;;;;;;;117.30;40.15;;;;;;;-4.52;62.02;100954.70;1719476;83;21172;-70
2021/03/10 01:06:13;;;;;;;113.80;37.03;;;;;;;-4.56;62.09;100952.68;1715608;83;21189;-70
2021/03/10 01:08:39;;;;;;;132.70;46.77;;;;;;;-4.57;62.12;100954.88;1717585;83;21153;-69
2021/03/10 01:11:05;;;;;;;113.80;42.05;;;;;;;-4.60;62.19;100948.95;1717727;83;21246;-70
2021/03/10 01:13:32;;;;;;;125.00;45.80;;;;;;;-4.65;62.25;100953.05;1716011;82;21148;-69
2021/03/10 01:15:58;;;;;;;141.47;50.12;;;;;;;-4.68;62.30;100941.44;1714586;83;21212;-70
2021/03/10 01:18:24;;;;;;;132.65;47.35;;;;;;;-4.68;62.33;100944.05;1726999;83;21144;-69
2021/03/10 01:20:51;;;;;;;163.57;53.75;;;;;;;-4.70;62.35;100945.87;1715536;83;21153;-70
2021/03/10 01:23:17;;;;;;;220.50;66.35;;;;;;;-4.73;62.39;100938.20;1715865;82;21330;-69
2021/03/10 01:25:43;;;;;;;155.78;53.95;;;;;;;-4.73;62.43;100937.34;1716470;83;21161;-69
2021/03/10 01:28:09;;;;;;;141.45;47.73;;;;;;;-4.73;62.47;100934.73;1726807;83;21164;-69
2021/03/10 01:30:36;;;;;;;171.43;55.20;;;;;;;-4.71;62.54;100938.97;1714788;83;21156;-70
2021/03/10 01:33:03;;;;;;;140.65;46.05;;;;;;;-4.71;62.54;100937.67;1714755;83;21160;-69
2021/03/10 01:35:29;;;;;;;150.75;50.03;;;;;;;-4.71;62.56;100935.06;1716403;83;21278;-70
2021/03/10 01:37:55;;;;;;;148.85;50.35;;;;;;;-4.73;62.61;100939.49;1720335;83;21158;-70
2021/03/10 01:40:22;;;;;;;238.77;79.70;;;;;;;-4.74;62.68;100936.48;1723115;83;21211;-69
2021/03/10 01:42:48;;;;;;;209.87;67.92;;;;;;;-4.71;62.71;100938.97;1727225;83;21174;-70
2021/03/10 01:45:15;;;;;;;182.47;68.10;;;;;;;-4.73;62.75;100939.49;1729531;83;21132;-69
2021/03/10 01:47:46;;;;;;;160.55;57.58;;;;;;;-4.74;62.79;100936.94;1729312;83;21210;-70
2021/03/10 01:50:16;;;;;;;96.15;36.17;;;;;;;-4.71;62.81;100936.36;1725226;83;21196;-69
2021/03/10 01:52:42;;;;;;;110.30;39.67;;;;;;;-4.72;62.85;100933.84;1715132;83;21152;-70
2021/03/10 01:55:09;;;;;;;101.50;33.28;;;;;;;-4.71;62.90;100927.70;1714594;83;21697;-70
2021/03/10 01:57:36;;;;;;;99.62;34.10;;;;;;;-4.71;62.93;100931.16;1718387;82;21168;-69
2021/03/10 02:00:07;;;;;;;106.30;33.35;;;;;;;-4.79;62.95;100929.34;1716265;83;22052;-70
2021/03/10 02:02:33;;;;;;;90.92;33.25;;;;;;;-4.87;63.01;100930.08;1685180;82;21196;-69
2021/03/10 02:05:00;;;;;;;105.35;34.03;;;;;;;-4.90;63.06;100928.91;1727089;82;21166;-70
2021/03/10 02:07:44;;;;;;;124.12;40.50;;;;;;;-4.90;63.12;100927.61;1719007;83;21631;-69
2021/03/10 02:10:18;;;;;;;122.50;39.78;;;;;;;-4.93;63.17;100920.38;1719130;83;21159;-69
2021/03/10 02:13:14;;;;;;;148.80;48.05;;;;;;;-4.95;63.25;100910.02;1812493;77;29174;-69
2021/03/10 02:15:54;;;;;;;153.10;45.67;;;;;;;-4.97;63.26;100922.70;1790656;78;21187;-69
2021/03/10 02:18:30;;;;;;;;;;;;;;;-4.94;63.30;100920.83;1794356;80;21288;-70
2021/03/10 02:20:57;;;;;;;94.62;31.42;;;;;;;-4.86;63.35;100915.33;1768726;80;20715;-69
2021/03/10 02:23:32;;;;;;;117.42;37.08;;;;;;;-4.87;63.39;100920.12;1789342;80;21596;-70
2021/03/10 02:26:48;;;;;;;112.90;35.28;;;;;;;-4.86;63.44;100912.73;1828318;77;28241;-70
2021/03/10 02:29:15;;;;;;;98.22;33.53;;;;;;;-4.96;63.45;100920.50;1822517;78;21123;-69
2021/03/10 02:31:47;;;;;;;96.53;36.23;;;;;;;-5.01;63.56;100916.77;1814198;78;21266;-69
2021/03/10 02:34:13;;;;;;;106.85;36.60;;;;;;;-5.07;63.62;100917.83;1794429;78;21167;-69
2021/03/10 02:36:39;;;;;;;109.17;39.75;;;;;;;-5.08;63.65;100919.21;1810523;78;21131;-69
2021/03/10 02:39:06;;;;;;;122.58;44.03;;;;;;;-5.11;63.70;100914.98;1824801;78;21139;-69
2021/03/10 02:41:32;;;;;;;104.63;35.33;;;;;;;-5.12;63.73;100911.13;1823017;78;21147;-69
2021/03/10 02:43:58;;;;;;;84.60;34.23;;;;;;;-5.12;63.75;100915.03;1824867;78;21233;-69
2021/03/10 02:46:26;;;;;;;83.62;32.73;;;;;;;-5.14;63.82;100912.95;1824620;78;21024;-70
2021/03/10 02:48:52;;;;;;;99.65;35.83;;;;;;;-5.14;63.87;100909.05;1810383;78;21558;-70
2021/03/10 02:51:19;;;;;;;95.15;32.58;;;;;;;-5.06;63.91;100913.48;1823520;78;21626;-70
2021/03/10 02:53:45;;;;;;;93.58;33.23;;;;;;;-5.06;63.92;100912.19;1782585;78;21561;-70
2021/03/10 02:56:11;;;;;;;85.45;33.92;;;;;;;-5.16;63.98;100912.15;1823916;78;21159;-70
2021/03/10 02:58:39;;;;;;;104.00;37.50;;;;;;;-5.20;64.01;100914.47;1814018;78;21199;-70
2021/03/10 03:01:07;;;;;;;114.88;41.08;;;;;;;-5.29;64.09;100913.53;1804033;78;21544;-70
2021/03/10 03:03:33;;;;;;;118.93;39.33;;;;;;;-5.36;64.14;100916.81;1816067;78;21203;-70
2021/03/10 03:05:59;;;;;;;124.72;42.83;;;;;;;-5.38;64.17;100924.27;1809225;78;21143;-70
2021/03/10 03:20:13;;;;;;;93.40;31.75;;;;;;;-5.37;64.42;100921.60;1833467;77;28334;-69
2021/03/10 03:22:45;;;;;;;95.80;33.35;;;;;;;-5.42;64.46;100927.44;1822804;77;21111;-70
2021/03/10 03:25:20;;;;;;;92.47;34.75;;;;;;;-5.45;64.51;100924.11;1825390;77;22089;-69
2021/03/10 03:27:49;;;;;;;84.10;30.88;;;;;;;-5.50;64.59;100928.61;1823069;78;21615;-69
2021/03/10 03:30:16;;;;;;;96.42;32.83;;;;;;;-5.46;64.62;100931.49;1825891;77;21124;-69
2021/03/10 03:32:43;;;;;;;91.70;33.38;;;;;;;-5.43;64.66;100933.98;1828939;77;21538;-69
2021/03/10 03:35:10;;;;;;;94.97;34.27;;;;;;;-5.48;64.69;100930.69;1830923;77;21620;-69
2021/03/10 03:37:37;;;;;;;94.22;34.53;;;;;;;-5.47;64.75;100929.80;1828424;77;21265;-69
2021/03/10 03:40:09;;;;;;;85.30;32.17;;;;;;;-5.41;64.80;100926.95;1829487;78;21231;-70
2021/03/10 03:42:35;;;;;;;93.95;34.35;;;;;;;-5.41;64.84;100929.11;1836058;77;21131;-69
2021/03/10 03:45:02;;;;;;;109.75;41.63;;;;;;;-5.34;64.90;100929.73;1836024;76;21155;-69
2021/03/10 03:47:28;;;;;;;105.43;39.35;;;;;;;-5.38;64.94;100925.09;1845333;77;21151;-69
2021/03/10 03:49:54;;;;;;;116.08;42.98;;;;;;;-5.40;64.97;100920.87;1859954;77;21296;-69
2021/03/10 03:52:20;;;;;;;109.32;41.42;;;;;;;-5.44;65.02;100924.48;1854785;76;21124;-69
2021/03/10 03:54:47;;;;;;;117.13;40.88;;;;;;;-5.40;65.07;100920.87;1859354;77;21610;-69
2021/03/10 03:57:13;;;;;;;102.72;37.75;;;;;;;-5.40;65.07;100920.42;1863111;77;22359;-69
2021/03/10 03:59:39;;;;;;;100.40;41.05;;;;;;;-5.48;65.10;100913.35;1863192;77;21347;-69
2021/03/10 04:02:06;;;;;;;109.40;40.78;;;;;;;-5.50;65.15;100919.52;1863264;77;21151;-69
2021/03/10 04:04:32;;;;;;;92.20;38.30;;;;;;;-5.49;65.21;100919.47;1855079;76;21143;-69
2021/03/10 04:06:59;;;;;;;94.97;36.75;;;;;;;-5.50;65.25;100927.31;1863366;76;21120;-69
2021/03/10 04:09:26;;;;;;;97.27;36.03;;;;;;;-5.50;65.28;100928.61;1863393;77;21580;-69
2021/03/10 04:11:52;;;;;;;84.95;31.60;;;;;;;-5.50;65.31;100932.06;1863214;77;21598;-69
2021/03/10 04:14:18;;;;;;;88.50;32.88;;;;;;;-5.49;65.36;100931.61;1854624;77;22229;-69
2021/03/10 04:16:44;;;;;;;87.62;30.90;;;;;;;-5.50;65.33;100935.10;1838803;77;21134;-69
2021/03/10 04:19:11;;;;;;;90.28;33.30;;;;;;;-5.53;65.40;100938.67;1863253;77;21588;-69
2021/03/10 04:21:37;;;;;;;90.10;35.03;;;;;;;-5.62;65.42;100937.69;1863211;77;21127;-69
2021/03/10 04:24:05;;;;;;;103.53;39.58;;;;;;;-5.69;65.48;100933.16;1858864;77;21166;-69
2021/03/10 04:26:31;;;;;;;102.53;39.53;;;;;;;-5.65;65.50;100929.56;1832052;78;21283;-69
2021/03/10 04:28:58;;;;;;;111.77;44.33;;;;;;;-5.61;65.51;100931.15;1832009;77;21565;-69
2021/03/10 04:31:24;;;;;;;121.13;43.73;;;;;;;-5.59;65.54;100933.22;1831610;77;21166;-69
2021/03/10 04:33:50;;;;;;;105.47;39.90;;;;;;;-5.57;65.56;100936.63;1832645;77;21143;-69
2021/03/10 04:36:16;;;;;;;84.20;35.90;;;;;;;-5.58;65.60;100936.23;1862634;77;21143;-69
2021/03/10 04:38:43;;;;;;;99.30;39.10;;;;;;;-5.47;65.65;100936.29;1862598;77;21249;-69
2021/03/10 04:41:09;;;;;;;101.90;40.98;;;;;;;-5.38;65.66;100933.37;1862404;77;21194;-69
2021/03/10 04:43:35;;;;;;;109.52;40.28;;;;;;;-5.35;65.68;100933.25;1862305;77;21119;-69
2021/03/10 04:46:01;;;;;;;95.65;36.95;;;;;;;-5.36;65.71;100934.15;1833548;77;21111;-70
2021/03/10 04:48:27;;;;;;;110.08;39.42;;;;;;;-5.38;65.76;100937.27;1831516;78;21123;-69
2021/03/10 04:50:54;;;;;;;91.65;34.50;;;;;;;-5.46;65.80;100937.55;1831410;78;21297;-70
2021/03/10 04:53:20;;;;;;;119.67;46.75;;;;;;;-5.51;65.85;100942.05;1831444;77;21136;-70
2021/03/10 04:55:46;;;;;;;177.90;59.90;;;;;;;-5.47;65.87;100942.78;1857049;77;21084;-70
2021/03/10 04:58:12;;;;;;;156.70;54.65;;;;;;;-5.44;65.91;100937.47;1845635;77;21560;-70
2021/03/10 05:00:39;;;;;;;131.18;48.02;;;;;;;-5.38;65.93;100941.16;1854221;77;21600;-70
2021/03/10 05:03:05;;;;;;;129.30;48.63;;;;;;;-5.35;65.96;100944.95;1853487;77;21214;-70
2021/03/10 05:05:31;;;;;;;110.32;45.20;;;;;;;-5.31;65.98;100943.94;1856284;76;21123;-70
2021/03/10 05:07:58;;;;;;;124.38;44.73;;;;;;;-5.24;66.01;100945.41;1842429;77;21671;-70
2021/03/10 05:10:24;;;;;;;114.77;40.92;;;;;;;-5.25;66.02;100943.70;1846908;77;21171;-70
2021/03/10 05:12:51;;;;;;;107.70;38.02;;;;;;;-5.25;66.04;100948.45;1862428;77;21539;-70
2021/03/10 05:15:17;;;;;;;97.78;36.77;;;;;;;-5.21;66.06;100950.48;1846574;77;21955;-70
2021/03/10 05:17:43;;;;;;;121.45;44.20;;;;;;;-5.17;66.12;100947.69;1862611;77;21142;-70
2021/03/10 05:20:11;;;;;;;173.85;61.63;;;;;;;-5.09;66.15;100947.41;1852306;77;21100;-70
2021/03/10 05:22:38;;;;;;;204.68;72.30;;;;;;;-4.99;66.17;100957.84;1847183;77;21159;-70
2021/03/10 05:25:07;;;;;;;179.40;62.88;;;;;;;-4.91;66.20;100962.31;1847381;77;21572;-70
2021/03/10 05:27:33;;;;;;;212.05;73.22;;;;;;;-4.86;66.22;100963.45;1844782;77;21193;-70
2021/03/10 05:30:00;;;;;;;193.13;64.37;;;;;;;-4.86;66.24;100969.50;1829327;77;21127;-70
2021/03/10 05:32:27;;;;;;;189.75;63.55;;;;;;;-4.87;66.28;100963.89;1846328;77;21156;-70
2021/03/10 05:34:53;;;;;;;174.18;58.75;;;;;;;-4.83;66.31;100971.98;1841362;77;21175;-70
2021/03/10 05:37:19;;;;;;;165.07;60.78;;;;;;;-4.77;66.33;100967.83;1830641;77;21104;-70
2021/03/10 05:39:45;;;;;;;163.10;53.08;;;;;;;-4.72;66.35;100972.41;1834954;77;21190;-70
2021/03/10 05:42:12;;;;;;;176.80;58.23;;;;;;;-4.66;66.34;100972.17;1848222;77;21556;-70
2021/03/10 05:44:38;;;;;;;154.38;54.05;;;;;;;-4.63;66.36;100970.74;1841632;77;21592;-70
2021/03/10 05:47:07;;;;;;;181.75;56.63;;;;;;;-4.56;66.37;100972.19;1848376;77;21104;-70
2021/03/10 05:49:33;;;;;;;172.13;53.87;;;;;;;-4.54;66.37;100970.36;1849006;77;21168;-70
2021/03/10 05:52:07;;;;;;;166.37;52.88;;;;;;;-4.51;66.42;100978.98;1848362;77;21176;-70
2021/03/10 05:54:35;;;;;;;163.30;51.10;;;;;;;-4.49;66.45;100972.80;1839740;77;21191;-70
2021/03/10 05:57:02;;;;;;;157.10;49.25;;;;;;;-4.42;66.46;100979.90;1817561;78;21147;-70
2021/03/10 05:59:29;;;;;;;167.10;54.48;;;;;;;-4.36;66.45;100979.67;1797995;77;21423;-70
2021/03/10 06:01:55;;;;;;;152.47;48.40;;;;;;;-4.35;66.46;100981.34;1848849;77;21152;-70
2021/03/10 06:04:23;;;;;;;184.03;58.52;;;;;;;-4.34;66.46;100984.35;1846496;77;21180;-70
2021/03/10 06:06:49;;;;;;;187.75;57.23;;;;;;;-4.35;66.48;100985.25;1829417;78;21160;-70
2021/03/10 06:09:18;;;;;;;224.62;67.08;;;;;;;-4.35;66.47;100985.25;1848292;77;21124;-70
2021/03/10 06:12:00;;;;;;;184.32;63.13;;;;;;;-4.38;66.48;100984.08;1848715;77;21627;-70
2021/03/10 06:14:26;;;;;;;199.17;63.02;;;;;;;-4.22;66.49;100988.59;1817616;77;21525;-70
2021/03/10 06:17:06;;;;;;;197.10;70.00;;;;;;;-3.75;66.30;100990.54;1829449;77;21185;-70
2021/03/10 06:19:46;;;;;;;282.20;108.92;;;;;;;-3.42;66.30;100982.19;1831636;77;21173;-70
2021/03/10 06:22:13;;;;;;;271.93;105.97;;;;;;;-3.20;66.34;100987.66;1834851;77;21095;-70
2021/03/10 06:24:39;;;;;;;268.57;104.83;;;;;;;-2.87;66.38;100982.69;1844555;77;21159;-71
2021/03/10 06:27:06;;;;;;;311.90;119.22;;;;;;;-2.44;66.36;100992.42;1862707;77;21112;-71
2021/03/10 06:29:32;;;;;;;254.65;102.15;;;;;;;-2.09;66.37;100991.56;1842273;76;21285;-71
2021/03/10 06:32:07;;;;;;;306.23;121.22;;;;;;;-1.74;66.36;100989.80;1855614;77;21164;-71
2021/03/10 06:34:48;;;;;;;281.32;112.30;;;;;;;-1.43;66.29;100995.16;1845852;77;21147;-71
2021/03/10 06:37:28;;;;;;;304.30;117.50;;;;;;;-1.22;66.24;101002.34;1828868;78;21146;-72
2021/03/10 06:40:13;;;;;;;289.55;112.10;;;;;;;-1.10;66.24;101004.33;1827709;78;21159;-71
2021/03/10 06:42:40;;;;;;;283.82;126.58;;;;;;;-1.04;66.29;101008.77;1837401;77;21178;-71
2021/03/10 06:45:07;;;;;;;289.08;119.60;;;;;;;-0.92;66.23;101008.59;1856800;77;21512;-71
2021/03/10 06:47:39;;;;;;;292.98;126.50;;;;;;;-0.76;66.15;101008.12;1854103;76;21663;-71
2021/03/10 06:50:08;;;;;;;271.32;123.87;;;;;;;-0.60;66.03;101012.90;1832081;77;21569;-71
2021/03/10 06:52:34;;;;;;;278.95;123.62;;;;;;;-0.42;65.96;101015.45;1829090;77;21596;-71
2021/03/10 06:55:01;;;;;;;255.67;118.45;;;;;;;-0.30;65.88;101016.92;1829166;77;22012;-71
2021/03/10 06:57:27;;;;;;;252.22;116.33;;;;;;;-0.22;65.70;101021.27;1831301;77;21202;-72
2021/03/10 06:59:55;;;;;;;263.60;116.22;;;;;;;-0.05;65.60;101024.24;1856020;77;21170;-72
2021/03/10 07:02:27;;;;;;;248.87;119.72;;;;;;;0.06;65.63;101025.80;1860229;76;21580;-72
2021/03/10 07:04:55;;;;;;;255.45;112.08;;;;;;;0.10;65.58;101028.62;1862857;76;21140;-72
2021/03/10 07:07:24;;;;;;;230.60;106.85;;;;;;;0.27;65.51;101032.88;1856529;76;22133;-71
2021/03/10 07:09:51;;;;;;;220.63;99.92;;;;;;;0.46;65.38;101036.11;1850062;77;21537;-71
2021/03/10 07:12:19;;;;;;;188.87;86.55;;;;;;;0.66;65.20;101033.63;1849017;77;21171;-71
2021/03/10 07:14:46;;;;;;;179.95;78.62;;;;;;;0.77;65.09;101039.94;1862771;77;21099;-71
2021/03/10 07:17:15;;;;;;;157.67;71.65;;;;;;;0.86;65.00;101035.90;1831496;77;21124;-72
2021/03/10 07:19:47;;;;;;;166.45;70.62;;;;;;;0.96;64.83;101042.28;1849744;77;22251;-72
2021/03/10 07:22:21;;;;;;;168.57;75.90;;;;;;;1.02;64.68;101039.30;1825793;78;21153;-72
2021/03/10 07:25:14;;;;;;;189.22;87.12;;;;;;;1.18;64.53;101043.13;1819690;78;21394;-72
2021/03/10 07:27:54;;;;;;;160.32;71.85;;;;;;;1.28;64.42;101039.84;1804444;78;21130;-72
2021/03/10 07:30:38;;;;;;;147.45;68.62;;;;;;;1.39;64.28;101041.33;1799904;78;21097;-72
2021/03/10 07:33:10;;;;;;;161.37;77.75;;;;;;;1.51;64.12;101040.55;1825624;78;22129;-72
2021/03/10 07:35:52;;;;;;;171.00;77.82;;;;;;;1.61;63.92;101041.30;1777803;80;21134;-72
2021/03/10 07:38:19;;;;;;;215.92;92.27;;;;;;;1.67;63.78;101043.53;1792469;78;21700;-72
2021/03/10 07:40:58;;;;;;;203.67;86.85;;;;;;;1.80;63.61;101043.96;1757392;81;21133;-72
2021/03/10 07:43:47;;;;;;;161.37;69.60;;;;;;;1.91;63.41;101042.80;1762845;80;21150;-72
2021/03/10 07:46:34;;;;;;;138.37;61.70;;;;;;;2.05;63.28;101043.69;1762703;81;21644;-71
2021/03/10 07:49:02;;;;;;;140.85;61.92;;;;;;;2.11;63.11;101045.94;1783599;80;21172;-72
2021/03/10 07:51:35;;;;;;;145.72;64.72;;;;;;;2.18;62.98;101047.23;1784657;80;21733;-72
2021/03/10 07:54:05;;;;;;;115.37;50.48;;;;;;;2.26;62.81;101052.80;1781981;79;21170;-72
2021/03/10 07:56:32;;;;;;;122.92;54.03;;;;;;;2.32;62.61;101061.14;1786718;79;26828;-72
2021/03/10 07:59:13;;;;;;;126.92;53.35;;;;;;;2.35;62.43;101054.38;1779806;80;21196;-72
2021/03/10 08:01:40;;;;;;;206.70;96.20;;;;;;;2.36;62.27;101049.47;1790046;80;21151;-72
2021/03/10 08:04:16;;;;;;;213.82;95.77;;;;;;;2.44;62.07;101053.76;1789657;80;21202;-72
2021/03/10 08:06:52;;;;;;;207.03;86.75;;;;;;;2.55;61.93;101052.20;1758743;81;21170;-73
2021/03/10 08:09:23;;;;;;;191.03;75.47;;;;;;;2.58;61.75;101057.25;1772922;80;21600;-72
2021/03/10 08:12:10;;;;;;;154.47;65.03;;;;;;;2.67;61.63;101055.34;1763180;81;21214;-72
2021/03/10 08:14:44;;;;;;;184.25;77.97;;;;;;;2.76;61.41;101057.33;1790186;80;21148;-72
2021/03/10 08:17:22;;;;;;;166.05;75.20;;;;;;;2.78;61.25;101052.83;1762802;81;21189;-72
2021/03/10 08:19:57;;;;;;;176.95;81.95;;;;;;;2.92;61.12;101057.99;1790954;78;21148;-72
2021/03/10 08:22:25;;;;;;;191.77;80.75;;;;;;;3.02;60.97;101057.73;1745886;79;21143;-72
2021/03/10 08:24:52;;;;;;;160.93;69.87;;;;;;;3.08;60.76;101055.98;1756397;80;21209;-73
2021/03/10 08:27:32;;;;;;;147.80;70.25;;;;;;;3.15;60.64;101049.33;1822420;78;21171;-72
2021/03/10 08:29:58;;;;;;;151.60;71.82;;;;;;;3.23;60.44;101054.92;1738839;80;21644;-72
2021/03/10 08:32:31;;;;;;;136.43;65.72;;;;;;;3.25;60.30;101054.80;1763252;80;21127;-72
2021/03/10 08:35:10;;;;;;;145.05;64.95;;;;;;;3.30;60.17;101060.13;1751266;80;21682;-73
2021/03/10 08:37:39;;;;;;;131.75;59.63;;;;;;;3.42;59.99;101057.94;1749686;80;21234;-73
2021/03/10 08:40:06;;;;;;;142.50;66.87;;;;;;;3.47;59.76;101053.20;1759359;80;21159;-73
2021/03/10 08:42:32;;;;;;;141.28;64.17;;;;;;;3.61;59.62;101051.36;1761162;80;21651;-72
2021/03/10 08:44:59;;;;;;;78.52;39.90;;;;;;;3.65;59.45;101052.84;1786195;79;21149;-73
2021/03/10 08:47:26;;;;;;;69.82;34.63;;;;;;;3.65;59.27;101055.47;1757554;80;21119;-73
2021/03/10 08:49:59;;;;;;;65.03;31.62;;;;;;;3.61;59.02;101059.27;1777909;79;21199;-74
2021/03/10 08:52:27;;;;;;;65.92;34.40;;;;;;;3.70;58.77;101061.24;1787028;80;21105;-72
2021/03/10 08:54:59;;;;;;;71.02;35.23;;;;;;;3.79;58.52;101060.59;1762902;80;21124;-72
2021/03/10 08:57:33;;;;;;;83.35;38.60;;;;;;;3.81;58.24;101060.00;1761287;80;21582;-72
2021/03/10 09:00:01;;;;;;;80.17;42.05;;;;;;;3.93;57.99;101064.41;1774116;80;21183;-72
2021/03/10 09:02:33;;;;;;;55.00;28.35;;;;;;;3.98;57.68;101058.30;1765591;80;22207;-71
2021/03/10 09:05:01;;;;;;;51.53;25.05;;;;;;;4.06;57.37;101051.99;1768920;79;21146;-72
2021/03/10 09:07:27;;;;;;;63.55;32.53;;;;;;;4.11;57.09;101052.52;1753491;80;21596;-72
2021/03/10 09:09:57;;;;;;;72.80;36.70;;;;;;;4.15;56.82;101050.48;1769514;79;21141;-72
2021/03/10 09:12:24;;;;;;;94.05;45.43;;;;;;;4.22;56.59;101053.86;1777615;79;21143;-71
2021/03/10 09:14:50;;;;;;;111.28;52.70;;;;;;;4.31;56.33;101061.12;1780634;79;22126;-71
2021/03/10 09:17:17;;;;;;;131.85;63.70;;;;;;;4.33;56.14;101063.15;1766313;79;21184;-71
2021/03/10 09:19:47;;;;;;;143.07;69.22;;;;;;;4.39;55.91;101069.32;1766092;79;21206;-72
2021/03/10 09:22:19;;;;;;;112.00;56.28;;;;;;;4.45;55.78;101060.08;1796304;79;21142;-71
2021/03/10 09:25:01;;;;;;;114.60;55.48;;;;;;;4.48;55.55;101064.66;1805095;79;21163;-71
2021/03/10 09:27:29;;;;;;;78.42;39.80;;;;;;;4.49;55.38;101061.07;1791728;79;22125;-71
2021/03/10 09:30:01;;;;;;;82.67;40.70;;;;;;;4.54;55.13;101056.74;1773761;80;21185;-71
2021/03/10 09:32:45;;;;;;;95.45;45.43;;;;;;;4.52;54.98;101056.88;1773929;80;21139;-71
2021/03/10 09:35:17;;;;;;;40.95;21.73;;;;;;;4.62;54.77;101050.89;1774437;79;21175;-71
2021/03/10 09:37:58;;;;;;;41.42;20.70;;;;;;;4.60;54.51;101055.45;1773895;80;21116;-71
2021/03/10 09:40:39;;;;;;;53.92;23.95;;;;;;;4.51;54.27;101065.74;1773732;80;21556;-71
2021/03/10 09:43:18;;;;;;;51.58;26.23;;;;;;;4.54;53.97;101065.52;1792966;80;21164;-72
2021/03/10 09:45:45;;;;;;;52.95;24.20;;;;;;;4.54;53.64;101070.80;1765094;81;21128;-71
2021/03/10 09:48:18;;;;;;;52.13;28.62;;;;;;;4.56;53.38;101068.05;1764749;81;21663;-71
2021/03/10 09:50:47;;;;;;;60.45;30.32;;;;;;;4.50;53.11;101066.69;1765204;81;21147;-72
2021/03/10 09:53:23;;;;;;;52.60;27.65;;;;;;;4.59;52.92;101076.22;1795618;79;21301;-72
2021/03/10 09:55:49;;;;;;;44.08;23.38;;;;;;;4.62;52.67;101068.05;1810374;78;21155;-72
2021/03/10 09:58:15;;;;;;;47.15;25.05;;;;;;;4.57;52.41;101067.10;1823226;78;21558;-72
2021/03/10 10:00:44;;;;;;;67.75;30.68;;;;;;;4.60;52.25;101065.55;1799695;78;21533;-72
2021/03/10 10:03:11;;;;;;;72.25;33.78;;;;;;;4.63;52.02;101061.83;1764864;81;21140;-72
2021/03/10 10:05:39;;;;;;;60.73;30.12;;;;;;;4.68;51.85;101075.54;1774741;80;21919;-71
2021/03/10 10:08:08;;;;;;;40.10;20.75;;;;;;;4.65;51.69;101074.42;1781083;80;21140;-72
2021/03/10 10:10:36;;;;;;;57.90;25.27;;;;;;;4.64;51.53;101075.41;1781159;80;21128;-71
2021/03/10 10:13:03;;;;;;;58.52;28.75;;;;;;;4.62;51.35;101085.22;1800152;78;21206;-72
2021/03/10 10:15:32;;;;;;;64.20;28.95;;;;;;;4.69;51.19;101078.52;1810838;78;21699;-71
2021/03/10 10:18:00;;;;;;;44.70;19.82;;;;;;;4.77;51.07;101085.41;1795902;79;21246;-71
2021/03/10 10:20:29;;;;;;;40.48;19.15;;;;;;;4.84;50.93;101087.94;1809566;78;21159;-71
2021/03/10 10:22:56;;;;;;;45.38;19.62;;;;;;;4.94;50.79;101086.28;1802853;78;21145;-72
2021/03/10 10:25:22;;;;;;;54.00;24.57;;;;;;;5.01;50.63;101082.20;1806915;78;21599;-72
2021/03/10 10:27:49;;;;;;;45.20;21.45;;;;;;;5.05;50.50;101079.70;1808580;78;21117;-71
2021/03/10 10:30:19;;;;;;;36.30;18.02;;;;;;;5.08;50.38;101073.33;1799830;78;21262;-72
2021/03/10 10:32:47;;;;;;;;;;;;;;;5.11;50.21;101073.93;1802804;78;21176;-71
2021/03/10 10:35:14;;;;;;;22.55;11.45;;;;;;;5.14;50.04;101076.33;1813361;78;20247;-72
2021/03/10 10:37:40;;;;;;;23.65;10.88;;;;;;;5.12;49.83;101073.45;1798117;78;21153;-71
2021/03/10 10:40:09;;;;;;;16.05;8.78;;;;;;;5.13;49.64;101077.31;1803691;78;21143;-71
2021/03/10 10:42:35;;;;;;;19.57;9.88;;;;;;;5.10;49.48;101076.23;1789796;79;21207;-71
2021/03/10 10:45:03;;;;;;;33.58;11.57;;;;;;;5.12;49.30;101078.74;1808324;78;21132;-71
2021/03/10 10:47:30;;;;;;;20.62;10.40;;;;;;;5.12;49.04;101082.23;1781784;79;21199;-71
2021/03/10 10:49:57;;;;;;;28.92;13.08;;;;;;;5.12;48.88;101078.27;1797916;79;21127;-71
2021/03/10 10:52:23;;;;;;;42.70;16.70;;;;;;;5.11;48.61;101075.25;1798178;79;21139;-71
2021/03/10 10:54:49;;;;;;;28.77;13.68;;;;;;;5.11;48.42;101077.05;1798010;79;21399;-71
2021/03/10 10:57:15;;;;;;;50.88;22.05;;;;;;;5.10;48.24;101080.67;1797869;79;21119;-71
2021/03/10 10:59:42;;;;;;;29.30;14.05;;;;;;;5.15;48.04;101073.21;1798086;79;21144;-72
2021/03/10 11:02:08;;;;;;;34.35;13.68;;;;;;;5.17;47.86;101072.16;1797786;79;21115;-71
2021/03/10 11:04:34;;;;;;;26.60;12.23;;;;;;;5.15;47.64;101071.42;1797479;79;21112;-71
2021/03/10 11:07:00;;;;;;;23.27;11.83;;;;;;;5.14;47.43;101075.52;1797797;79;21403;-71
2021/03/10 11:09:27;;;;;;;25.50;13.25;;;;;;;5.12;47.13;101079.59;1798150;79;21187;-71
2021/03/10 11:11:53;;;;;;;33.00;14.83;;;;;;;5.05;46.92;101073.09;1797781;79;21107;-71
2021/03/10 11:14:19;;;;;;;30.62;13.95;;;;;;;4.99;46.76;101065.64;1798044;78;21131;-71
2021/03/10 11:16:46;;;;;;;38.20;17.60;;;;;;;4.96;46.68;101068.52;1798025;79;21087;-71
2021/03/10 11:19:12;;;;;;;47.53;21.25;;;;;;;5.05;46.56;101061.20;1797959;79;22177;-71
2021/03/10 11:21:38;;;;;;;38.40;17.35;;;;;;;5.11;46.45;101065.16;1798043;79;21180;-72
2021/03/10 11:24:05;;;;;;;46.18;21.00;;;;;;;5.14;46.28;101066.27;1798044;79;21124;-72
2021/03/10 11:26:31;;;;;;;34.53;15.05;;;;;;;5.10;46.04;101070.95;1797913;79;21139;-71